sensor_id;sensor_type;location;lat;lon;timestamp;temperature;humidity
14188;DHT22;7175;51.978;5.330;2022-08-19T00:01:36;18.30;99.90
14188;DHT22;7175;51.978;5.330;2022-08-19T00:04:06;18.20;99.90
14188;DHT22;7175;51.978;5.330;2022-08-19T00:06:36;18.30;99.90
14188;DHT22;7175;51.978;5.330;2022-08-19T00:09:07;18.20;99.90
14188;DHT22;7175;51.978;5.330;2022-08-19T00:11:37;18.20;99.90
14188;DHT22;7175;51.978;5.330;2022-08-19T00:14:08;18.30;99.90
14188;DHT22;7175;51.978;5.330;2022-08-19T00:16:37;18.20;99.90
14188;DHT22;7175;51.978;5.330;2022-08-19T00:19:05;18.20;99.90
14188;DHT22;7175;51.978;5.330;2022-08-19T00:21:34;18.20;99.90
14188;DHT22;7175;51.978;5.330;2022-08-19T00:24:06;18.20;99.90
14188;DHT22;7175;51.978;5.330;2022-08-19T00:26:35;18.10;99.90
14188;DHT22;7175;51.978;5.330;2022-08-19T00:29:07;18.00;99.90
14188;DHT22;7175;51.978;5.330;2022-08-19T00:31:35;18.00;99.90
14188;DHT22;7175;51.978;5.330;2022-08-19T00:34:04;18.00;99.90
14188;DHT22;7175;51.978;5.330;2022-08-19T00:36:32;18.00;99.90
14188;DHT22;7175;51.978;5.330;2022-08-19T00:39:01;18.00;99.90
14188;DHT22;7175;51.978;5.330;2022-08-19T00:41:29;18.00;99.90
14188;DHT22;7175;51.978;5.330;2022-08-19T00:44:05;18.00;99.90
14188;DHT22;7175;51.978;5.330;2022-08-19T00:46:38;18.00;99.90
14188;DHT22;7175;51.978;5.330;2022-08-19T00:49:11;18.00;99.90
14188;DHT22;7175;51.978;5.330;2022-08-19T00:51:45;17.90;99.90
14188;DHT22;7175;51.978;5.330;2022-08-19T00:54:17;17.90;99.90
14188;DHT22;7175;51.978;5.330;2022-08-19T00:56:55;17.90;99.90
14188;DHT22;7175;51.978;5.330;2022-08-19T00:59:25;17.90;99.90
14188;DHT22;7175;51.978;5.330;2022-08-19T01:02:15;17.80;99.90
14188;DHT22;7175;51.978;5.330;2022-08-19T01:04:44;17.90;99.90
14188;DHT22;7175;51.978;5.330;2022-08-19T01:07:12;17.80;99.90
14188;DHT22;7175;51.978;5.330;2022-08-19T01:09:46;17.90;99.90
14188;DHT22;7175;51.978;5.330;2022-08-19T01:12:15;17.80;99.90
14188;DHT22;7175;51.978;5.330;2022-08-19T01:14:44;17.80;99.90
14188;DHT22;7175;51.978;5.330;2022-08-19T01:17:16;17.80;99.90
14188;DHT22;7175;51.978;5.330;2022-08-19T01:19:47;17.80;99.90
14188;DHT22;7175;51.978;5.330;2022-08-19T01:22:19;17.90;99.90
14188;DHT22;7175;51.978;5.330;2022-08-19T01:24:57;17.80;99.90
14188;DHT22;7175;51.978;5.330;2022-08-19T01:27:26;17.80;99.90
14188;DHT22;7175;51.978;5.330;2022-08-19T01:30:08;17.70;99.90
14188;DHT22;7175;51.978;5.330;2022-08-19T01:32:38;17.70;99.90
14188;DHT22;7175;51.978;5.330;2022-08-19T01:35:07;17.70;99.90
14188;DHT22;7175;51.978;5.330;2022-08-19T01:37:43;17.70;99.90
14188;DHT22;7175;51.978;5.330;2022-08-19T01:40:13;17.70;99.90
14188;DHT22;7175;51.978;5.330;2022-08-19T01:42:41;17.70;99.90
14188;DHT22;7175;51.978;5.330;2022-08-19T01:45:10;17.70;99.90
14188;DHT22;7175;51.978;5.330;2022-08-19T01:47:38;17.70;99.90
14188;DHT22;7175;51.978;5.330;2022-08-19T01:50:09;17.70;99.90
14188;DHT22;7175;51.978;5.330;2022-08-19T01:52:39;17.60;99.90
14188;DHT22;7175;51.978;5.330;2022-08-19T01:55:10;17.70;99.90
14188;DHT22;7175;51.978;5.330;2022-08-19T01:57:42;17.70;99.90
14188;DHT22;7175;51.978;5.330;2022-08-19T02:00:14;17.60;99.90
14188;DHT22;7175;51.978;5.330;2022-08-19T02:02:43;17.60;99.90
14188;DHT22;7175;51.978;5.330;2022-08-19T02:05:12;17.60;99.90
14188;DHT22;7175;51.978;5.330;2022-08-19T02:07:41;17.60;99.90
14188;DHT22;7175;51.978;5.330;2022-08-19T02:10:16;17.50;99.90
14188;DHT22;7175;51.978;5.330;2022-08-19T02:12:47;17.50;99.90
14188;DHT22;7175;51.978;5.330;2022-08-19T02:15:16;17.50;99.90
14188;DHT22;7175;51.978;5.330;2022-08-19T02:17:47;17.40;99.90
14188;DHT22;7175;51.978;5.330;2022-08-19T02:20:16;17.40;99.90
14188;DHT22;7175;51.978;5.330;2022-08-19T02:22:44;17.40;99.90
14188;DHT22;7175;51.978;5.330;2022-08-19T02:25:13;17.40;99.90
14188;DHT22;7175;51.978;5.330;2022-08-19T02:27:42;17.40;99.90
14188;DHT22;7175;51.978;5.330;2022-08-19T02:30:15;17.30;99.90
14188;DHT22;7175;51.978;5.330;2022-08-19T02:32:44;17.20;99.90
14188;DHT22;7175;51.978;5.330;2022-08-19T02:35:13;17.20;99.90
14188;DHT22;7175;51.978;5.330;2022-08-19T02:37:42;17.20;99.90
14188;DHT22;7175;51.978;5.330;2022-08-19T02:40:29;17.10;99.90
14188;DHT22;7175;51.978;5.330;2022-08-19T02:43:00;17.10;99.90
14188;DHT22;7175;51.978;5.330;2022-08-19T02:45:32;17.10;99.90
14188;DHT22;7175;51.978;5.330;2022-08-19T02:48:03;17.20;99.90
14188;DHT22;7175;51.978;5.330;2022-08-19T02:50:43;17.20;99.90
14188;DHT22;7175;51.978;5.330;2022-08-19T02:53:19;17.20;99.90
14188;DHT22;7175;51.978;5.330;2022-08-19T02:55:49;17.20;99.90
14188;DHT22;7175;51.978;5.330;2022-08-19T02:58:19;17.20;99.90
14188;DHT22;7175;51.978;5.330;2022-08-19T03:00:53;17.20;99.90
14188;DHT22;7175;51.978;5.330;2022-08-19T03:03:22;17.10;99.90
14188;DHT22;7175;51.978;5.330;2022-08-19T03:05:50;17.10;99.90
14188;DHT22;7175;51.978;5.330;2022-08-19T03:08:24;17.10;99.90
14188;DHT22;7175;51.978;5.330;2022-08-19T03:10:52;17.10;99.90
14188;DHT22;7175;51.978;5.330;2022-08-19T03:13:21;17.10;99.90
14188;DHT22;7175;51.978;5.330;2022-08-19T03:15:51;17.10;99.90
14188;DHT22;7175;51.978;5.330;2022-08-19T03:18:20;17.10;99.90
14188;DHT22;7175;51.978;5.330;2022-08-19T03:20:51;17.10;99.90
14188;DHT22;7175;51.978;5.330;2022-08-19T03:23:23;17.10;99.90
14188;DHT22;7175;51.978;5.330;2022-08-19T03:25:52;17.10;99.90
14188;DHT22;7175;51.978;5.330;2022-08-19T03:28:41;17.10;99.90
14188;DHT22;7175;51.978;5.330;2022-08-19T03:31:21;17.10;99.90
14188;DHT22;7175;51.978;5.330;2022-08-19T03:34:10;17.20;99.90
14188;DHT22;7175;51.978;5.330;2022-08-19T03:36:39;17.20;99.90
14188;DHT22;7175;51.978;5.330;2022-08-19T03:39:09;17.10;99.90
14188;DHT22;7175;51.978;5.330;2022-08-19T03:41:41;17.10;99.90
14188;DHT22;7175;51.978;5.330;2022-08-19T03:44:12;17.10;99.90
14188;DHT22;7175;51.978;5.330;2022-08-19T03:46:50;17.10;99.90
14188;DHT22;7175;51.978;5.330;2022-08-19T03:49:19;17.10;99.90
14188;DHT22;7175;51.978;5.330;2022-08-19T03:51:55;17.10;99.90
14188;DHT22;7175;51.978;5.330;2022-08-19T03:54:25;17.10;99.90
14188;DHT22;7175;51.978;5.330;2022-08-19T03:56:55;17.10;99.90
14188;DHT22;7175;51.978;5.330;2022-08-19T03:59:26;17.00;99.90
14188;DHT22;7175;51.978;5.330;2022-08-19T04:01:59;17.00;99.90
14188;DHT22;7175;51.978;5.330;2022-08-19T04:04:27;17.00;99.90
14188;DHT22;7175;51.978;5.330;2022-08-19T04:06:58;17.10;99.90
14188;DHT22;7175;51.978;5.330;2022-08-19T04:09:26;17.10;99.90
14188;DHT22;7175;51.978;5.330;2022-08-19T04:11:57;17.10;99.90
14188;DHT22;7175;51.978;5.330;2022-08-19T04:14:29;17.00;99.90
14188;DHT22;7175;51.978;5.330;2022-08-19T04:17:00;17.00;99.90
14188;DHT22;7175;51.978;5.330;2022-08-19T04:19:33;17.00;99.90
14188;DHT22;7175;51.978;5.330;2022-08-19T04:22:02;17.00;99.90
14188;DHT22;7175;51.978;5.330;2022-08-19T04:24:32;17.00;99.90
14188;DHT22;7175;51.978;5.330;2022-08-19T04:27:02;17.00;99.90
14188;DHT22;7175;51.978;5.330;2022-08-19T04:29:31;17.00;99.90
14188;DHT22;7175;51.978;5.330;2022-08-19T04:32:02;17.00;99.90
14188;DHT22;7175;51.978;5.330;2022-08-19T04:34:37;16.90;99.90
14188;DHT22;7175;51.978;5.330;2022-08-19T04:37:25;16.90;99.90
14188;DHT22;7175;51.978;5.330;2022-08-19T04:40:05;16.90;99.90
14188;DHT22;7175;51.978;5.330;2022-08-19T04:42:51;16.90;99.90
14188;DHT22;7175;51.978;5.330;2022-08-19T04:45:21;16.90;99.90
14188;DHT22;7175;51.978;5.330;2022-08-19T04:47:54;16.90;99.90
14188;DHT22;7175;51.978;5.330;2022-08-19T04:50:46;16.90;99.90
14188;DHT22;7175;51.978;5.330;2022-08-19T04:53:15;16.80;99.90
14188;DHT22;7175;51.978;5.330;2022-08-19T04:55:44;16.80;99.90
14188;DHT22;7175;51.978;5.330;2022-08-19T04:58:13;16.90;99.90
14188;DHT22;7175;51.978;5.330;2022-08-19T05:00:43;16.90;99.90
14188;DHT22;7175;51.978;5.330;2022-08-19T05:03:13;16.90;99.90
14188;DHT22;7175;51.978;5.330;2022-08-19T05:05:44;16.90;99.90
14188;DHT22;7175;51.978;5.330;2022-08-19T05:08:13;16.90;99.90
14188;DHT22;7175;51.978;5.330;2022-08-19T05:11:00;16.90;99.90
14188;DHT22;7175;51.978;5.330;2022-08-19T05:13:28;17.00;99.90
14188;DHT22;7175;51.978;5.330;2022-08-19T05:15:58;16.90;99.90
14188;DHT22;7175;51.978;5.330;2022-08-19T05:18:28;17.00;99.90
14188;DHT22;7175;51.978;5.330;2022-08-19T05:21:16;17.00;99.90
14188;DHT22;7175;51.978;5.330;2022-08-19T05:24:05;17.00;99.90
14188;DHT22;7175;51.978;5.330;2022-08-19T05:26:37;17.00;99.90
14188;DHT22;7175;51.978;5.330;2022-08-19T05:29:07;17.00;99.90
14188;DHT22;7175;51.978;5.330;2022-08-19T05:31:36;17.00;99.90
14188;DHT22;7175;51.978;5.330;2022-08-19T05:34:09;17.10;99.90
14188;DHT22;7175;51.978;5.330;2022-08-19T05:36:46;17.10;99.90
14188;DHT22;7175;51.978;5.330;2022-08-19T05:39:19;17.10;99.90
14188;DHT22;7175;51.978;5.330;2022-08-19T05:41:51;17.20;99.90
14188;DHT22;7175;51.978;5.330;2022-08-19T05:44:21;17.40;99.90
14188;DHT22;7175;51.978;5.330;2022-08-19T05:46:50;17.60;99.90
14188;DHT22;7175;51.978;5.330;2022-08-19T05:49:22;17.70;99.90
14188;DHT22;7175;51.978;5.330;2022-08-19T05:51:52;17.70;99.90
14188;DHT22;7175;51.978;5.330;2022-08-19T05:54:23;17.80;99.90
14188;DHT22;7175;51.978;5.330;2022-08-19T05:56:52;17.80;99.90
14188;DHT22;7175;51.978;5.330;2022-08-19T05:59:21;17.80;99.90
14188;DHT22;7175;51.978;5.330;2022-08-19T06:01:51;17.90;99.90
14188;DHT22;7175;51.978;5.330;2022-08-19T06:04:23;18.00;99.90
14188;DHT22;7175;51.978;5.330;2022-08-19T06:06:53;18.00;99.90
14188;DHT22;7175;51.978;5.330;2022-08-19T06:09:24;18.00;99.90
14188;DHT22;7175;51.978;5.330;2022-08-19T06:11:55;18.00;99.90
14188;DHT22;7175;51.978;5.330;2022-08-19T06:14:29;18.10;99.90
14188;DHT22;7175;51.978;5.330;2022-08-19T06:16:59;18.20;99.90
14188;DHT22;7175;51.978;5.330;2022-08-19T06:19:34;18.20;99.90
14188;DHT22;7175;51.978;5.330;2022-08-19T06:22:07;18.30;99.90
14188;DHT22;7175;51.978;5.330;2022-08-19T06:24:38;18.40;99.90
14188;DHT22;7175;51.978;5.330;2022-08-19T06:27:08;18.30;99.90
14188;DHT22;7175;51.978;5.330;2022-08-19T06:29:36;18.40;99.90
14188;DHT22;7175;51.978;5.330;2022-08-19T06:32:06;18.50;99.90
14188;DHT22;7175;51.978;5.330;2022-08-19T06:34:35;18.50;99.90
14188;DHT22;7175;51.978;5.330;2022-08-19T06:37:04;18.60;99.90
14188;DHT22;7175;51.978;5.330;2022-08-19T06:39:36;18.60;99.90
14188;DHT22;7175;51.978;5.330;2022-08-19T06:42:06;18.80;99.90
14188;DHT22;7175;51.978;5.330;2022-08-19T06:44:40;18.80;99.90
14188;DHT22;7175;51.978;5.330;2022-08-19T06:47:17;19.00;99.90
14188;DHT22;7175;51.978;5.330;2022-08-19T06:49:56;19.00;99.90
14188;DHT22;7175;51.978;5.330;2022-08-19T06:52:30;19.10;99.90
14188;DHT22;7175;51.978;5.330;2022-08-19T06:55:01;19.20;99.90
14188;DHT22;7175;51.978;5.330;2022-08-19T06:57:33;19.30;99.90
14188;DHT22;7175;51.978;5.330;2022-08-19T07:00:03;19.20;99.90
14188;DHT22;7175;51.978;5.330;2022-08-19T07:02:35;19.30;99.90
14188;DHT22;7175;51.978;5.330;2022-08-19T07:05:08;19.30;99.90
14188;DHT22;7175;51.978;5.330;2022-08-19T07:07:39;19.40;99.90
14188;DHT22;7175;51.978;5.330;2022-08-19T07:10:13;19.40;99.90
14188;DHT22;7175;51.978;5.330;2022-08-19T07:12:42;19.60;99.90
14188;DHT22;7175;51.978;5.330;2022-08-19T07:15:12;19.70;99.90
14188;DHT22;7175;51.978;5.330;2022-08-19T07:17:42;19.80;99.90
14188;DHT22;7175;51.978;5.330;2022-08-19T07:20:15;19.90;99.90
14188;DHT22;7175;51.978;5.330;2022-08-19T07:22:44;19.90;99.90
14188;DHT22;7175;51.978;5.330;2022-08-19T07:25:15;20.00;99.90
14188;DHT22;7175;51.978;5.330;2022-08-19T07:27:44;20.00;99.90
14188;DHT22;7175;51.978;5.330;2022-08-19T07:30:20;20.10;99.90
14188;DHT22;7175;51.978;5.330;2022-08-19T07:32:52;20.20;99.90
14188;DHT22;7175;51.978;5.330;2022-08-19T07:35:22;20.30;99.90
14188;DHT22;7175;51.978;5.330;2022-08-19T07:37:50;20.30;99.90
14188;DHT22;7175;51.978;5.330;2022-08-19T07:40:20;20.30;99.90
14188;DHT22;7175;51.978;5.330;2022-08-19T07:42:48;20.20;99.90
14188;DHT22;7175;51.978;5.330;2022-08-19T07:45:17;20.20;99.90
14188;DHT22;7175;51.978;5.330;2022-08-19T07:47:46;20.20;99.90
14188;DHT22;7175;51.978;5.330;2022-08-19T07:50:19;20.20;99.90
14188;DHT22;7175;51.978;5.330;2022-08-19T07:52:49;20.30;99.90
14188;DHT22;7175;51.978;5.330;2022-08-19T07:55:25;20.50;99.90
14188;DHT22;7175;51.978;5.330;2022-08-19T07:58:10;20.90;99.90
14188;DHT22;7175;51.978;5.330;2022-08-19T08:00:40;21.00;99.90
14188;DHT22;7175;51.978;5.330;2022-08-19T08:03:08;21.00;99.90
14188;DHT22;7175;51.978;5.330;2022-08-19T08:05:43;20.80;99.90
14188;DHT22;7175;51.978;5.330;2022-08-19T08:08:31;20.80;99.90
14188;DHT22;7175;51.978;5.330;2022-08-19T08:11:19;21.10;99.90
14188;DHT22;7175;51.978;5.330;2022-08-19T08:13:50;21.70;99.90
14188;DHT22;7175;51.978;5.330;2022-08-19T08:16:33;22.00;99.90
14188;DHT22;7175;51.978;5.330;2022-08-19T08:19:13;21.90;99.90
14188;DHT22;7175;51.978;5.330;2022-08-19T08:21:52;21.80;99.90
14188;DHT22;7175;51.978;5.330;2022-08-19T08:24:23;21.50;99.90
14188;DHT22;7175;51.978;5.330;2022-08-19T08:26:54;21.60;99.90
14188;DHT22;7175;51.978;5.330;2022-08-19T08:29:24;21.50;99.90
14188;DHT22;7175;51.978;5.330;2022-08-19T08:32:01;21.40;99.90
14188;DHT22;7175;51.978;5.330;2022-08-19T08:34:41;21.50;99.90
14188;DHT22;7175;51.978;5.330;2022-08-19T08:37:09;21.50;99.90
14188;DHT22;7175;51.978;5.330;2022-08-19T08:39:39;21.40;99.90
14188;DHT22;7175;51.978;5.330;2022-08-19T08:42:15;21.50;99.90
14188;DHT22;7175;51.978;5.330;2022-08-19T08:44:51;21.30;99.90
14188;DHT22;7175;51.978;5.330;2022-08-19T08:47:22;21.40;99.90
14188;DHT22;7175;51.978;5.330;2022-08-19T08:49:53;21.60;99.90
14188;DHT22;7175;51.978;5.330;2022-08-19T08:52:24;21.80;99.90
14188;DHT22;7175;51.978;5.330;2022-08-19T08:55:03;21.60;99.90
14188;DHT22;7175;51.978;5.330;2022-08-19T08:57:39;22.10;99.90
14188;DHT22;7175;51.978;5.330;2022-08-19T09:00:14;22.00;99.90
14188;DHT22;7175;51.978;5.330;2022-08-19T09:02:44;21.90;99.90
14188;DHT22;7175;51.978;5.330;2022-08-19T09:05:17;21.90;99.90
14188;DHT22;7175;51.978;5.330;2022-08-19T09:07:58;22.00;99.90
14188;DHT22;7175;51.978;5.330;2022-08-19T09:10:36;22.20;99.90
14188;DHT22;7175;51.978;5.330;2022-08-19T09:13:17;22.70;99.90
14188;DHT22;7175;51.978;5.330;2022-08-19T09:15:54;22.60;99.90
14188;DHT22;7175;51.978;5.330;2022-08-19T09:18:24;22.70;99.90
14188;DHT22;7175;51.978;5.330;2022-08-19T09:20:55;22.90;99.90
14188;DHT22;7175;51.978;5.330;2022-08-19T09:23:25;23.10;99.90
14188;DHT22;7175;51.978;5.330;2022-08-19T09:25:55;22.90;99.90
14188;DHT22;7175;51.978;5.330;2022-08-19T09:28:24;22.80;99.90
14188;DHT22;7175;51.978;5.330;2022-08-19T09:30:53;22.70;99.90
14188;DHT22;7175;51.978;5.330;2022-08-19T09:33:22;23.20;99.90
14188;DHT22;7175;51.978;5.330;2022-08-19T09:36:02;24.00;99.90
14188;DHT22;7175;51.978;5.330;2022-08-19T09:38:37;24.30;99.90
14188;DHT22;7175;51.978;5.330;2022-08-19T09:41:13;23.80;99.90
14188;DHT22;7175;51.978;5.330;2022-08-19T09:43:46;23.40;99.90
14188;DHT22;7175;51.978;5.330;2022-08-19T09:46:15;23.10;99.90
14188;DHT22;7175;51.978;5.330;2022-08-19T09:48:48;22.80;99.90
14188;DHT22;7175;51.978;5.330;2022-08-19T09:51:20;22.50;99.90
14188;DHT22;7175;51.978;5.330;2022-08-19T09:53:51;22.40;99.90
14188;DHT22;7175;51.978;5.330;2022-08-19T09:56:23;22.40;99.90
14188;DHT22;7175;51.978;5.330;2022-08-19T09:58:51;22.30;99.90
14188;DHT22;7175;51.978;5.330;2022-08-19T10:01:23;22.40;99.90
14188;DHT22;7175;51.978;5.330;2022-08-19T10:03:53;22.50;99.90
14188;DHT22;7175;51.978;5.330;2022-08-19T10:06:24;22.70;99.90
14188;DHT22;7175;51.978;5.330;2022-08-19T10:09:15;22.70;99.90
14188;DHT22;7175;51.978;5.330;2022-08-19T10:12:02;22.90;99.90
14188;DHT22;7175;51.978;5.330;2022-08-19T10:14:45;23.40;99.90
14188;DHT22;7175;51.978;5.330;2022-08-19T10:17:16;23.70;99.90
14188;DHT22;7175;51.978;5.330;2022-08-19T10:19:56;23.80;99.90
14188;DHT22;7175;51.978;5.330;2022-08-19T10:22:25;24.40;99.90
14188;DHT22;7175;51.978;5.330;2022-08-19T10:24:55;24.50;99.90
14188;DHT22;7175;51.978;5.330;2022-08-19T10:27:25;24.30;99.90
14188;DHT22;7175;51.978;5.330;2022-08-19T10:30:02;24.30;99.90
14188;DHT22;7175;51.978;5.330;2022-08-19T10:33:02;24.40;99.90
14188;DHT22;7175;51.978;5.330;2022-08-19T10:35:39;24.60;99.90
14188;DHT22;7175;51.978;5.330;2022-08-19T10:38:24;24.70;99.90
14188;DHT22;7175;51.978;5.330;2022-08-19T10:41:14;24.60;99.90
14188;DHT22;7175;51.978;5.330;2022-08-19T10:47:05;25.10;99.90
14188;DHT22;7175;51.978;5.330;2022-08-19T10:49:52;25.40;99.90
14188;DHT22;7175;51.978;5.330;2022-08-19T10:52:40;25.40;99.90
14188;DHT22;7175;51.978;5.330;2022-08-19T10:55:19;24.90;99.90
14188;DHT22;7175;51.978;5.330;2022-08-19T10:58:10;24.90;99.90
14188;DHT22;7175;51.978;5.330;2022-08-19T11:00:53;25.20;99.90
14188;DHT22;7175;51.978;5.330;2022-08-19T11:03:29;25.60;99.90
14188;DHT22;7175;51.978;5.330;2022-08-19T11:06:07;25.00;99.90
14188;DHT22;7175;51.978;5.330;2022-08-19T11:09:00;24.90;99.90
14188;DHT22;7175;51.978;5.330;2022-08-19T11:11:29;25.30;99.90
14188;DHT22;7175;51.978;5.330;2022-08-19T11:14:14;25.90;99.90
14188;DHT22;7175;51.978;5.330;2022-08-19T11:16:49;25.90;99.90
14188;DHT22;7175;51.978;5.330;2022-08-19T11:19:26;26.00;99.90
14188;DHT22;7175;51.978;5.330;2022-08-19T11:21:57;26.40;99.90
14188;DHT22;7175;51.978;5.330;2022-08-19T11:24:49;26.60;99.90
14188;DHT22;7175;51.978;5.330;2022-08-19T11:27:31;26.90;99.90
14188;DHT22;7175;51.978;5.330;2022-08-19T11:30:02;27.00;99.90
14188;DHT22;7175;51.978;5.330;2022-08-19T11:32:33;26.90;99.90
14188;DHT22;7175;51.978;5.330;2022-08-19T11:35:05;27.30;99.90
14188;DHT22;7175;51.978;5.330;2022-08-19T11:37:39;27.20;99.90
14188;DHT22;7175;51.978;5.330;2022-08-19T11:40:16;26.80;99.90
14188;DHT22;7175;51.978;5.330;2022-08-19T11:42:46;26.50;99.90
14188;DHT22;7175;51.978;5.330;2022-08-19T11:45:26;26.50;99.90
14188;DHT22;7175;51.978;5.330;2022-08-19T11:47:57;26.50;99.90
14188;DHT22;7175;51.978;5.330;2022-08-19T11:50:29;26.50;99.90
14188;DHT22;7175;51.978;5.330;2022-08-19T11:53:00;27.40;99.90
14188;DHT22;7175;51.978;5.330;2022-08-19T11:55:37;27.20;99.90
14188;DHT22;7175;51.978;5.330;2022-08-19T11:58:14;26.60;99.90
14188;DHT22;7175;51.978;5.330;2022-08-19T12:00:51;27.20;99.90
14188;DHT22;7175;51.978;5.330;2022-08-19T12:03:30;27.70;99.90
14188;DHT22;7175;51.978;5.330;2022-08-19T12:06:07;27.30;99.90
14188;DHT22;7175;51.978;5.330;2022-08-19T12:08:37;26.80;99.90
14188;DHT22;7175;51.978;5.330;2022-08-19T12:11:14;27.30;99.90
14188;DHT22;7175;51.978;5.330;2022-08-19T12:13:44;28.00;99.90
14188;DHT22;7175;51.978;5.330;2022-08-19T12:16:26;27.10;99.90
14188;DHT22;7175;51.978;5.330;2022-08-19T12:19:08;26.90;99.90
14188;DHT22;7175;51.978;5.330;2022-08-19T12:22:00;26.80;99.90
14188;DHT22;7175;51.978;5.330;2022-08-19T12:24:31;26.20;99.90
14188;DHT22;7175;51.978;5.330;2022-08-19T12:27:04;25.80;99.90
14188;DHT22;7175;51.978;5.330;2022-08-19T12:29:45;25.80;99.90
14188;DHT22;7175;51.978;5.330;2022-08-19T12:35:40;26.00;99.90
14188;DHT22;7175;51.978;5.330;2022-08-19T12:38:14;25.90;99.90
14188;DHT22;7175;51.978;5.330;2022-08-19T12:40:45;25.70;99.90
14188;DHT22;7175;51.978;5.330;2022-08-19T12:43:20;25.50;99.90
14188;DHT22;7175;51.978;5.330;2022-08-19T12:45:50;25.60;99.90
14188;DHT22;7175;51.978;5.330;2022-08-19T12:48:32;25.50;99.90
14188;DHT22;7175;51.978;5.330;2022-08-19T12:51:06;25.30;99.90
14188;DHT22;7175;51.978;5.330;2022-08-19T12:53:56;25.00;99.90
14188;DHT22;7175;51.978;5.330;2022-08-19T12:56:28;25.20;99.90
14188;DHT22;7175;51.978;5.330;2022-08-19T12:59:00;25.60;99.90
14188;DHT22;7175;51.978;5.330;2022-08-19T13:01:46;25.70;99.90
14188;DHT22;7175;51.978;5.330;2022-08-19T13:04:15;26.50;99.90
14188;DHT22;7175;51.978;5.330;2022-08-19T13:06:53;26.20;99.90
14188;DHT22;7175;51.978;5.330;2022-08-19T13:09:28;25.60;99.90
14188;DHT22;7175;51.978;5.330;2022-08-19T13:11:57;25.40;99.90
14188;DHT22;7175;51.978;5.330;2022-08-19T13:14:31;25.30;99.90
14188;DHT22;7175;51.978;5.330;2022-08-19T13:17:05;25.10;99.90
14188;DHT22;7175;51.978;5.330;2022-08-19T13:19:36;25.00;99.90
14188;DHT22;7175;51.978;5.330;2022-08-19T13:22:11;25.00;99.90
14188;DHT22;7175;51.978;5.330;2022-08-19T13:24:46;24.90;99.90
14188;DHT22;7175;51.978;5.330;2022-08-19T13:27:15;24.80;99.90
14188;DHT22;7175;51.978;5.330;2022-08-19T13:29:43;25.00;99.90
14188;DHT22;7175;51.978;5.330;2022-08-19T13:32:32;24.90;99.90
14188;DHT22;7175;51.978;5.330;2022-08-19T13:35:18;24.80;99.90
14188;DHT22;7175;51.978;5.330;2022-08-19T13:37:47;24.90;99.90
14188;DHT22;7175;51.978;5.330;2022-08-19T13:40:25;24.70;99.90
14188;DHT22;7175;51.978;5.330;2022-08-19T13:43:06;24.00;99.90
14188;DHT22;7175;51.978;5.330;2022-08-19T13:45:52;23.60;99.90
14188;DHT22;7175;51.978;5.330;2022-08-19T13:48:28;23.00;99.90
14188;DHT22;7175;51.978;5.330;2022-08-19T13:51:10;22.50;99.90
14188;DHT22;7175;51.978;5.330;2022-08-19T13:53:40;22.20;99.90
14188;DHT22;7175;51.978;5.330;2022-08-19T13:56:18;22.00;99.90
14188;DHT22;7175;51.978;5.330;2022-08-19T13:58:56;21.90;99.90
14188;DHT22;7175;51.978;5.330;2022-08-19T14:01:26;21.90;99.90
14188;DHT22;7175;51.978;5.330;2022-08-19T14:04:00;21.90;99.90
14188;DHT22;7175;51.978;5.330;2022-08-19T14:06:29;22.00;99.90
14188;DHT22;7175;51.978;5.330;2022-08-19T14:09:00;21.90;99.90
14188;DHT22;7175;51.978;5.330;2022-08-19T14:11:30;21.80;99.90
14188;DHT22;7175;51.978;5.330;2022-08-19T14:13:59;21.60;99.90
14188;DHT22;7175;51.978;5.330;2022-08-19T14:16:29;21.60;99.90
14188;DHT22;7175;51.978;5.330;2022-08-19T14:18:59;21.70;99.90
14188;DHT22;7175;51.978;5.330;2022-08-19T14:21:28;21.70;99.90
14188;DHT22;7175;51.978;5.330;2022-08-19T14:24:04;21.60;99.90
14188;DHT22;7175;51.978;5.330;2022-08-19T14:26:35;21.40;99.90
14188;DHT22;7175;51.978;5.330;2022-08-19T14:29:04;21.50;99.90
14188;DHT22;7175;51.978;5.330;2022-08-19T14:31:32;21.50;99.90
14188;DHT22;7175;51.978;5.330;2022-08-19T14:34:02;21.40;99.90
14188;DHT22;7175;51.978;5.330;2022-08-19T14:36:35;21.40;99.90
14188;DHT22;7175;51.978;5.330;2022-08-19T14:39:06;21.30;99.90
14188;DHT22;7175;51.978;5.330;2022-08-19T14:41:42;21.40;99.90
14188;DHT22;7175;51.978;5.330;2022-08-19T14:44:11;21.40;99.90
14188;DHT22;7175;51.978;5.330;2022-08-19T14:46:42;21.60;99.90
14188;DHT22;7175;51.978;5.330;2022-08-19T14:49:16;21.70;99.90
14188;DHT22;7175;51.978;5.330;2022-08-19T14:51:45;21.80;99.90
14188;DHT22;7175;51.978;5.330;2022-08-19T14:54:19;21.80;99.90
14188;DHT22;7175;51.978;5.330;2022-08-19T14:56:53;21.80;99.90
14188;DHT22;7175;51.978;5.330;2022-08-19T14:59:23;21.90;99.90
14188;DHT22;7175;51.978;5.330;2022-08-19T15:01:52;21.80;99.90
14188;DHT22;7175;51.978;5.330;2022-08-19T15:04:21;21.90;99.90
14188;DHT22;7175;51.978;5.330;2022-08-19T15:06:57;21.80;99.90
14188;DHT22;7175;51.978;5.330;2022-08-19T15:09:34;21.90;99.90
14188;DHT22;7175;51.978;5.330;2022-08-19T15:12:04;22.10;99.90
14188;DHT22;7175;51.978;5.330;2022-08-19T15:14:36;22.20;99.90
14188;DHT22;7175;51.978;5.330;2022-08-19T15:17:08;22.40;99.90
14188;DHT22;7175;51.978;5.330;2022-08-19T15:19:38;22.70;99.90
14188;DHT22;7175;51.978;5.330;2022-08-19T15:22:07;23.00;99.90
14188;DHT22;7175;51.978;5.330;2022-08-19T15:24:55;23.20;99.90
14188;DHT22;7175;51.978;5.330;2022-08-19T15:27:33;23.20;99.90
14188;DHT22;7175;51.978;5.330;2022-08-19T15:30:03;23.20;99.90
14188;DHT22;7175;51.978;5.330;2022-08-19T15:32:38;23.00;99.90
14188;DHT22;7175;51.978;5.330;2022-08-19T15:35:07;23.00;99.90
14188;DHT22;7175;51.978;5.330;2022-08-19T15:37:35;22.90;99.90
14188;DHT22;7175;51.978;5.330;2022-08-19T15:40:05;22.90;99.90
14188;DHT22;7175;51.978;5.330;2022-08-19T15:42:36;22.90;99.90
14188;DHT22;7175;51.978;5.330;2022-08-19T15:45:09;22.90;99.90
14188;DHT22;7175;51.978;5.330;2022-08-19T15:47:38;22.80;99.90
14188;DHT22;7175;51.978;5.330;2022-08-19T15:50:08;22.80;99.90
14188;DHT22;7175;51.978;5.330;2022-08-19T15:52:42;22.70;99.90
14188;DHT22;7175;51.978;5.330;2022-08-19T15:55:16;22.80;99.90
14188;DHT22;7175;51.978;5.330;2022-08-19T15:58:02;22.70;99.90
14188;DHT22;7175;51.978;5.330;2022-08-19T16:01:14;22.80;99.90
14188;DHT22;7175;51.978;5.330;2022-08-19T16:04:08;22.80;99.90
14188;DHT22;7175;51.978;5.330;2022-08-19T16:06:55;22.80;99.90
14188;DHT22;7175;51.978;5.330;2022-08-19T16:09:26;22.80;99.90
14188;DHT22;7175;51.978;5.330;2022-08-19T16:11:56;22.80;99.90
14188;DHT22;7175;51.978;5.330;2022-08-19T16:14:30;22.70;99.90
14188;DHT22;7175;51.978;5.330;2022-08-19T16:17:00;22.60;99.90
14188;DHT22;7175;51.978;5.330;2022-08-19T16:19:30;22.50;99.90
14188;DHT22;7175;51.978;5.330;2022-08-19T16:22:00;22.60;99.90
14188;DHT22;7175;51.978;5.330;2022-08-19T16:24:29;22.50;99.90
14188;DHT22;7175;51.978;5.330;2022-08-19T16:27:00;22.50;99.90
14188;DHT22;7175;51.978;5.330;2022-08-19T16:29:30;22.70;99.90
14188;DHT22;7175;51.978;5.330;2022-08-19T16:32:07;22.60;99.90